Nearby METAR Reports

 

CWGT - Sisters Island (Auto)
Distance from station: NE 39km
Updated: 2020-09-23 15:00

 Wind from ESE
Wind: ESE 54 km/h
Temperature: 14°C
Dew Point: 13°C
Humidity: 94%
2020/09/23 22:00 CWGT 232200Z AUTO 11029KT 14/13 RMK AO1 PK WND 11037/2104 SLP998 T01410127 56022
CWGB - Ballenas Island (Auto)
Distance from station: ENE 47km
Updated: 2020-02-25 17:00
NOT Current

 Wind from ESE
Wind: ESE 30 km/h
Temperature: 6°C
Wind Chill: 2°C
Dew Point: 2°C
Humidity: 76%
2020/02/26 01:00 CWGB 260100Z AUTO 12016KT 06/02 RMK AO1 PK WND 11021/0009 SLP317 T00580015 58008
CYQQ - CFB Comox
Distance from station: N 55km
Updated: 2020-09-23 15:00
Light rain, Showers, Mostly cloudy
Light rain, Showers, Mostly cloudy
 Wind from SSE
Wind: SSE 37 km/h, Gust: 50 km/h
Temperature: 16°C
Dew Point: 13°C
Humidity: 83%
Barometer: 999 hPa
Summary: Light rain, Showers
Clouds: Mostly cloudy
Visibility: 32 km
Cloud details: Few Clouds 152 m
Partly cloudy 1219 m
Mostly cloudy 3658 m
2020/09/23 22:00 CYQQ 232200Z 15020G27KT 20SM -SHRA FEW005 SCT040 BKN120 16/13 A2950 RMK SF2SC2AC2 PCPN VRY LGT SLP990
 
CYPW - Powell River Airport
Distance from station: NNE 69km
Updated: 2020-09-23 15:00
Mostly cloudy
Mostly cloudy
 Wind from ESE
Wind: ESE 33 km/h, Gust: 67 km/h
Temperature: 16°C
Dew Point: 14°C
Humidity: 88%
Barometer: 1000.7 hPa
Clouds: Mostly cloudy
Visibility: 32 km
Cloud details: Mostly cloudy 244 m
Mostly cloudy 1372 m
2020/09/23 22:00 CYPW 232200Z 11018G36KT 070V140 20SM BKN008 BKN045 16/14 A2955 RMK SC6SC1 CIG VRB 6-10 SLP009 DENSITY ALT 1100FT
CYCD - Nanaimo Airport
Distance from station: ESE 70km
Updated: 2020-09-23 15:00
Mostly cloudy
Mostly cloudy
 Wind from ESE
Wind: ESE 26 km/h
Temperature: 16°C
Dew Point: 14°C
Humidity: 88%
Barometer: 1001.7 hPa
Clouds: Mostly cloudy
Visibility: 13 km
Cloud details: Few Clouds 274 m
Mostly cloudy 1067 m
Mostly cloudy 2743 m
2020/09/23 22:00 CYCD 232200Z 11014KT 8SM FEW009 BKN035 BKN090 16/14 A2958 RMK SF1SC5AC1 SLP017 DENSITY ALT 700FT
CYAZ - Tofino Airport
Distance from station: WSW 73km
Updated: 2020-09-23 15:07
Light rain, Mist, Overcast
Light rain, Mist, Overcast
 Wind from SE
Wind: SE 31 km/h, Gust: 48 km/h
Temperature: 15°C
Dew Point: 15°C
Humidity: 100%
Barometer: 999.3 hPa
Summary: Light rain, Mist
Clouds: Overcast
Visibility: 5 km
Cloud details: Overcast 91 m
2020/09/23 22:07 CYAZ 232207Z 14017G26KT 3SM -RA BR OVC003 15/15 A2951 RMK NS8 PRESFR SLP996 DENSITY ALT 600FT
 
CWEL - Entrance Island (Auto)
Distance from station: E 73km
Updated: 2020-09-23 15:00

 Wind from S
Wind: S 37 km/h
Temperature: 16°C
Dew Point: 14°C
Humidity: 88%
2020/09/23 22:00 CWEL 232200Z AUTO 17020KT 16/14 RMK AO1 6023 PK WND 16024/2107 SLP015 T01620144 50008
CYBL - Campbell River Airport
Distance from station: NNW 88km
Updated: 2020-09-23 15:00
Light rain, Showers, Overcast
Light rain, Showers, Overcast
 Wind from ESE
Wind: ESE 22 km/h
Temperature: 15°C
Dew Point: 14°C
Humidity: 94%
Barometer: 998.6 hPa
Summary: Light rain, Showers
Clouds: Overcast
Visibility: 13 km
Cloud details: Overcast 213 m
2020/09/23 22:00 CYBL 232200Z 12012KT 8SM -SHRA OVC007 15/14 A2949 RMK SF8 CVCTV CLD EMBD SLP988 DENSITY ALT 900FT
CWKH - Malahat Highway (Auto)
Distance from station: SE 116km
Updated: 2020-09-23 15:00

 
Temperature: 14°C
2020/09/23 22:00 CWKH 232200Z AUTO 14/ RMK AO1 4PAST HR 8022 SLP021 P0002 T0140 50080
 
CYVR - Vancouver Intl Airport
Distance from station: E 118km
Updated: 2020-09-23 15:00
Light rain, Overcast
Light rain, Overcast
 Wind from SSE
Wind: SSE 20 km/h, Gust: 31 km/h
Temperature: 16°C
Dew Point: 15°C
Humidity: 94%
Barometer: 1003.4 hPa
Summary: Light rain
Clouds: Overcast
Visibility: 16 km
Cloud details: Partly cloudy 244 m
Mostly cloudy 610 m
Overcast 2073 m
2020/09/23 22:00 CYVR 232200Z 15011G17KT 10SM -RA SCT008 BKN020 OVC068 16/15 A2963 RMK SF4SC3AC1 SLP035 DENSITY ALT 500FT
CYYJ - Victoria Intl Airport
Distance from station: ESE 120km
Updated: 2020-09-23 15:00
Overcast
Overcast
 Wind from varies
Wind: varies 6 km/h
Temperature: 15°C
Dew Point: 14°C
Humidity: 94%
Barometer: 1002.7 hPa
Clouds: Overcast
Visibility: 16 km
Cloud details: Partly cloudy 152 m
Mostly cloudy 274 m
Overcast 1219 m
2020/09/23 22:00 CYYJ 232200Z VRB03KT 10SM SCT005 BKN009 OVC040 15/14 A2961 RMK SF4SC3SC1 PRESFR SLP029 DENSITY ALT 400FT
CWEB - Estevan Pt. (Auto)
Distance from station: W 129km
Updated: 2020-09-23 15:00

 Wind from SSE
Wind: SSE 28 km/h
Temperature: 13°C
Dew Point: 13°C
Humidity: 100%
2020/09/23 22:00 CWEB 232200Z AUTO 15015KT 13/13 RMK AO1 PK WND 17030/2113 SLP990 T01320132 58004
 
CWQK - Race Rocks (Auto)
Distance from station: SE 138km
Updated: 2020-09-23 15:00

 Wind from N
Wind: N 2 km/h
Temperature: 15°C
2020/09/23 22:00 CWQK 232200Z AUTO 36001KT 15/ RMK AO1 SLP025 T0150 58024
CWAE - Whistler
Distance from station: NE 167km
Updated: 2020-09-23 15:00
Light rain, Overcast
Light rain, Overcast
 Wind from calm
Wind: Calm
Temperature: 10°C
Dew Point: 10°C
Humidity: 100%
Barometer: 1002.7 hPa
Summary: Light rain
Clouds: Overcast
Visibility: 24 km
Cloud details: Few Clouds 488 m
Overcast 1280 m
2020/09/23 22:00 CWAE 232200Z 00000KT 15SM -RA FEW016 OVC042 10/10 A2961 RMK CU2SC6 WND ESTD SLP029 DENSITY ALT 2500FT
CYZT - Port Hardy Airport
Distance from station: NW 244km
Updated: 2020-09-23 15:14
Mostly cloudy
Mostly cloudy
 Wind from ESE
Wind: ESE 20 km/h, Gust: 30 km/h
Temperature: 13°C
Dew Point: 12°C
Humidity: 94%
Barometer: 996.3 hPa
Clouds: Mostly cloudy
Visibility: 32 km
Cloud details: Few Clouds 183 m
Partly cloudy 1067 m
Mostly cloudy 1372 m
Mostly cloudy 1585 m
2020/09/23 22:14 CYZT 232214Z 11011G16KT 20SM FEW006 SCT035TCU BKN045 BKN052 13/12 A2942 RMK SF2TCU1SC3SC1 WSHFT 2158 SLP964 DENSITY ALT 500FT
 
CWRU - Solander Isl (Auto)
Distance from station: WNW 247km
Updated: 2020-09-23 14:00
NOT Current

 Wind from ESE
Wind: ESE 43 km/h
Temperature: 15°C
Dew Point: 14°C
Humidity: 94%
2020/09/23 21:00 CWRU 232100Z AUTO 12023KT 15/14 RMK AO1 PK WND 11029/2047 SLP959 T01520138